sensor_id;sensor_type;location;lat;lon;timestamp;P1;durP1;ratioP1;P2;durP2;ratioP2
44048;SDS011;29717;47.028;15.470;2022-10-16T00:01:45;53.83;;;40.75;;
44048;SDS011;29717;47.028;15.470;2022-10-16T00:04:14;56.40;;;43.20;;
44048;SDS011;29717;47.028;15.470;2022-10-16T00:06:40;73.20;;;46.40;;
44048;SDS011;29717;47.028;15.470;2022-10-16T00:09:07;240.15;;;51.60;;
44048;SDS011;29717;47.028;15.470;2022-10-16T00:11:35;166.55;;;48.78;;
44048;SDS011;29717;47.028;15.470;2022-10-16T00:14:04;97.88;;;46.25;;
44048;SDS011;29717;47.028;15.470;2022-10-16T00:16:31;122.70;;;48.25;;
44048;SDS011;29717;47.028;15.470;2022-10-16T00:18:58;89.43;;;46.25;;
44048;SDS011;29717;47.028;15.470;2022-10-16T00:21:27;89.80;;;46.38;;
44048;SDS011;29717;47.028;15.470;2022-10-16T00:23:54;94.45;;;46.40;;
44048;SDS011;29717;47.028;15.470;2022-10-16T00:26:21;65.75;;;45.03;;
44048;SDS011;29717;47.028;15.470;2022-10-16T00:28:48;97.00;;;46.55;;
44048;SDS011;29717;47.028;15.470;2022-10-16T00:31:16;121.05;;;47.47;;
44048;SDS011;29717;47.028;15.470;2022-10-16T00:33:43;112.88;;;44.25;;
44048;SDS011;29717;47.028;15.470;2022-10-16T00:36:11;63.88;;;43.60;;
44048;SDS011;29717;47.028;15.470;2022-10-16T00:38:39;82.78;;;42.45;;
44048;SDS011;29717;47.028;15.470;2022-10-16T00:41:06;69.18;;;46.25;;
44048;SDS011;29717;47.028;15.470;2022-10-16T00:43:35;66.18;;;45.97;;
44048;SDS011;29717;47.028;15.470;2022-10-16T00:46:02;62.35;;;46.42;;
44048;SDS011;29717;47.028;15.470;2022-10-16T00:48:29;64.93;;;45.55;;
44048;SDS011;29717;47.028;15.470;2022-10-16T00:50:57;75.45;;;49.40;;
44048;SDS011;29717;47.028;15.470;2022-10-16T00:53:24;65.03;;;46.38;;
44048;SDS011;29717;47.028;15.470;2022-10-16T00:55:53;72.00;;;47.72;;
44048;SDS011;29717;47.028;15.470;2022-10-16T00:58:20;76.55;;;50.72;;
44048;SDS011;29717;47.028;15.470;2022-10-16T01:00:47;93.82;;;48.47;;
44048;SDS011;29717;47.028;15.470;2022-10-16T01:03:24;198.27;;;52.58;;
44048;SDS011;29717;47.028;15.470;2022-10-16T01:05:54;111.65;;;52.22;;
44048;SDS011;29717;47.028;15.470;2022-10-16T01:08:25;112.68;;;53.35;;
44048;SDS011;29717;47.028;15.470;2022-10-16T01:10:57;105.30;;;48.58;;
44048;SDS011;29717;47.028;15.470;2022-10-16T01:13:24;71.63;;;49.38;;
44048;SDS011;29717;47.028;15.470;2022-10-16T01:15:53;67.28;;;48.17;;
44048;SDS011;29717;47.028;15.470;2022-10-16T01:18:24;63.38;;;45.97;;
44048;SDS011;29717;47.028;15.470;2022-10-16T01:20:58;62.75;;;44.13;;
44048;SDS011;29717;47.028;15.470;2022-10-16T01:23:35;62.90;;;46.58;;
44048;SDS011;29717;47.028;15.470;2022-10-16T01:26:12;56.03;;;44.85;;
44048;SDS011;29717;47.028;15.470;2022-10-16T01:28:44;54.30;;;42.70;;
44048;SDS011;29717;47.028;15.470;2022-10-16T01:31:11;59.70;;;44.40;;
44048;SDS011;29717;47.028;15.470;2022-10-16T01:33:42;58.17;;;43.85;;
44048;SDS011;29717;47.028;15.470;2022-10-16T01:36:11;52.85;;;42.30;;
44048;SDS011;29717;47.028;15.470;2022-10-16T01:38:39;59.42;;;43.03;;
44048;SDS011;29717;47.028;15.470;2022-10-16T01:41:08;57.15;;;41.22;;
44048;SDS011;29717;47.028;15.470;2022-10-16T01:43:37;52.85;;;40.88;;
44048;SDS011;29717;47.028;15.470;2022-10-16T01:46:06;51.58;;;38.10;;
44048;SDS011;29717;47.028;15.470;2022-10-16T01:48:35;50.70;;;39.72;;
44048;SDS011;29717;47.028;15.470;2022-10-16T01:51:03;44.10;;;36.75;;
44048;SDS011;29717;47.028;15.470;2022-10-16T01:53:31;47.78;;;39.75;;
44048;SDS011;29717;47.028;15.470;2022-10-16T01:55:59;54.40;;;40.88;;
44048;SDS011;29717;47.028;15.470;2022-10-16T01:58:27;49.47;;;39.13;;
44048;SDS011;29717;47.028;15.470;2022-10-16T02:00:56;57.67;;;40.38;;
44048;SDS011;29717;47.028;15.470;2022-10-16T02:03:24;51.70;;;39.97;;
44048;SDS011;29717;47.028;15.470;2022-10-16T02:05:51;50.38;;;39.80;;
44048;SDS011;29717;47.028;15.470;2022-10-16T02:08:19;52.53;;;40.88;;
44048;SDS011;29717;47.028;15.470;2022-10-16T02:10:47;51.15;;;39.67;;
44048;SDS011;29717;47.028;15.470;2022-10-16T02:13:15;49.30;;;39.92;;
44048;SDS011;29717;47.028;15.470;2022-10-16T02:15:43;53.45;;;41.58;;
44048;SDS011;29717;47.028;15.470;2022-10-16T02:18:10;50.70;;;41.70;;
44048;SDS011;29717;47.028;15.470;2022-10-16T02:20:40;52.33;;;40.35;;
44048;SDS011;29717;47.028;15.470;2022-10-16T02:23:10;45.72;;;37.50;;
44048;SDS011;29717;47.028;15.470;2022-10-16T02:25:40;47.08;;;38.70;;
44048;SDS011;29717;47.028;15.470;2022-10-16T02:28:08;51.25;;;40.83;;
44048;SDS011;29717;47.028;15.470;2022-10-16T02:30:39;50.28;;;38.15;;
44048;SDS011;29717;47.028;15.470;2022-10-16T02:33:08;56.00;;;40.67;;
44048;SDS011;29717;47.028;15.470;2022-10-16T02:35:36;52.42;;;42.17;;
44048;SDS011;29717;47.028;15.470;2022-10-16T02:38:04;53.67;;;42.60;;
44048;SDS011;29717;47.028;15.470;2022-10-16T02:40:32;55.85;;;43.90;;
44048;SDS011;29717;47.028;15.470;2022-10-16T02:42:59;58.20;;;45.33;;
44048;SDS011;29717;47.028;15.470;2022-10-16T02:45:26;77.40;;;46.35;;
44048;SDS011;29717;47.028;15.470;2022-10-16T02:47:53;65.70;;;45.78;;
44048;SDS011;29717;47.028;15.470;2022-10-16T02:50:19;81.35;;;44.55;;
44048;SDS011;29717;47.028;15.470;2022-10-16T02:52:46;201.85;;;49.63;;
44048;SDS011;29717;47.028;15.470;2022-10-16T02:55:14;209.00;;;52.30;;
44048;SDS011;29717;47.028;15.470;2022-10-16T02:57:41;217.30;;;52.35;;
44048;SDS011;29717;47.028;15.470;2022-10-16T03:00:09;60.25;;;46.45;;
44048;SDS011;29717;47.028;15.470;2022-10-16T03:02:36;77.78;;;47.15;;
44048;SDS011;29717;47.028;15.470;2022-10-16T03:05:03;80.88;;;45.20;;
44048;SDS011;29717;47.028;15.470;2022-10-16T03:07:30;67.15;;;42.92;;
44048;SDS011;29717;47.028;15.470;2022-10-16T03:09:56;116.72;;;44.38;;
44048;SDS011;29717;47.028;15.470;2022-10-16T03:12:27;197.52;;;50.30;;
44048;SDS011;29717;47.028;15.470;2022-10-16T03:14:54;109.80;;;46.13;;
44048;SDS011;29717;47.028;15.470;2022-10-16T03:17:21;128.45;;;47.85;;
44048;SDS011;29717;47.028;15.470;2022-10-16T03:19:48;214.68;;;51.65;;
44048;SDS011;29717;47.028;15.470;2022-10-16T03:22:15;162.93;;;48.30;;
44048;SDS011;29717;47.028;15.470;2022-10-16T03:24:42;170.18;;;49.28;;
44048;SDS011;29717;47.028;15.470;2022-10-16T03:27:08;200.82;;;50.35;;
44048;SDS011;29717;47.028;15.470;2022-10-16T03:29:37;326.63;;;56.92;;
44048;SDS011;29717;47.028;15.470;2022-10-16T03:32:03;197.35;;;50.47;;
44048;SDS011;29717;47.028;15.470;2022-10-16T03:34:30;262.00;;;53.03;;
44048;SDS011;29717;47.028;15.470;2022-10-16T03:36:57;386.67;;;60.00;;
44048;SDS011;29717;47.028;15.470;2022-10-16T03:39:24;98.82;;;47.03;;
44048;SDS011;29717;47.028;15.470;2022-10-16T03:41:52;341.70;;;58.30;;
44048;SDS011;29717;47.028;15.470;2022-10-16T03:44:19;101.38;;;46.60;;
44048;SDS011;29717;47.028;15.470;2022-10-16T03:46:47;132.13;;;47.42;;
44048;SDS011;29717;47.028;15.470;2022-10-16T03:49:14;121.90;;;47.53;;
44048;SDS011;29717;47.028;15.470;2022-10-16T03:51:41;104.55;;;43.38;;
44048;SDS011;29717;47.028;15.470;2022-10-16T03:54:09;224.43;;;48.58;;
44048;SDS011;29717;47.028;15.470;2022-10-16T03:56:38;139.85;;;46.28;;
44048;SDS011;29717;47.028;15.470;2022-10-16T03:59:05;214.00;;;47.25;;
44048;SDS011;29717;47.028;15.470;2022-10-16T04:01:31;180.73;;;46.83;;
44048;SDS011;29717;47.028;15.470;2022-10-16T04:04:00;87.10;;;44.03;;
44048;SDS011;29717;47.028;15.470;2022-10-16T04:06:26;57.03;;;42.15;;
44048;SDS011;29717;47.028;15.470;2022-10-16T04:08:53;53.65;;;41.90;;
44048;SDS011;29717;47.028;15.470;2022-10-16T04:11:20;59.47;;;42.55;;
44048;SDS011;29717;47.028;15.470;2022-10-16T04:13:47;48.97;;;41.25;;
44048;SDS011;29717;47.028;15.470;2022-10-16T04:16:13;54.97;;;41.53;;
44048;SDS011;29717;47.028;15.470;2022-10-16T04:18:40;57.53;;;41.03;;
44048;SDS011;29717;47.028;15.470;2022-10-16T04:21:08;55.25;;;42.28;;
44048;SDS011;29717;47.028;15.470;2022-10-16T04:23:35;87.35;;;43.42;;
44048;SDS011;29717;47.028;15.470;2022-10-16T04:26:02;87.00;;;44.45;;
44048;SDS011;29717;47.028;15.470;2022-10-16T04:28:28;52.53;;;43.08;;
44048;SDS011;29717;47.028;15.470;2022-10-16T04:30:55;48.60;;;40.88;;
44048;SDS011;29717;47.028;15.470;2022-10-16T04:33:22;52.15;;;40.80;;
44048;SDS011;29717;47.028;15.470;2022-10-16T04:35:55;52.00;;;41.55;;
44048;SDS011;29717;47.028;15.470;2022-10-16T04:38:24;49.47;;;40.47;;
44048;SDS011;29717;47.028;15.470;2022-10-16T04:40:51;48.38;;;40.35;;
44048;SDS011;29717;47.028;15.470;2022-10-16T04:43:18;45.20;;;39.28;;
44048;SDS011;29717;47.028;15.470;2022-10-16T04:45:45;56.33;;;45.90;;
44048;SDS011;29717;47.028;15.470;2022-10-16T04:48:13;50.10;;;43.08;;
44048;SDS011;29717;47.028;15.470;2022-10-16T04:50:40;55.33;;;43.42;;
44048;SDS011;29717;47.028;15.470;2022-10-16T04:53:07;49.03;;;41.55;;
44048;SDS011;29717;47.028;15.470;2022-10-16T04:55:35;51.65;;;41.35;;
44048;SDS011;29717;47.028;15.470;2022-10-16T04:58:02;53.15;;;40.55;;
44048;SDS011;29717;47.028;15.470;2022-10-16T05:00:29;45.90;;;40.42;;
44048;SDS011;29717;47.028;15.470;2022-10-16T05:02:56;53.38;;;39.65;;
44048;SDS011;29717;47.028;15.470;2022-10-16T05:05:24;44.40;;;38.00;;
44048;SDS011;29717;47.028;15.470;2022-10-16T05:07:51;41.90;;;37.22;;
44048;SDS011;29717;47.028;15.470;2022-10-16T05:10:18;40.17;;;35.97;;
44048;SDS011;29717;47.028;15.470;2022-10-16T05:12:47;42.83;;;37.50;;
44048;SDS011;29717;47.028;15.470;2022-10-16T05:15:14;44.60;;;37.83;;
44048;SDS011;29717;47.028;15.470;2022-10-16T05:17:41;49.78;;;38.45;;
44048;SDS011;29717;47.028;15.470;2022-10-16T05:20:07;47.47;;;39.45;;
44048;SDS011;29717;47.028;15.470;2022-10-16T05:22:34;96.13;;;41.42;;
44048;SDS011;29717;47.028;15.470;2022-10-16T05:25:01;42.75;;;38.20;;
44048;SDS011;29717;47.028;15.470;2022-10-16T05:27:28;50.22;;;40.35;;
44048;SDS011;29717;47.028;15.470;2022-10-16T05:29:56;187.88;;;42.25;;
44048;SDS011;29717;47.028;15.470;2022-10-16T05:32:24;54.25;;;39.15;;
44048;SDS011;29717;47.028;15.470;2022-10-16T05:34:53;90.40;;;41.50;;
44048;SDS011;29717;47.028;15.470;2022-10-16T05:37:20;51.20;;;39.25;;
44048;SDS011;29717;47.028;15.470;2022-10-16T05:39:47;49.08;;;40.03;;
44048;SDS011;29717;47.028;15.470;2022-10-16T05:42:26;46.38;;;39.60;;
44048;SDS011;29717;47.028;15.470;2022-10-16T05:44:56;68.03;;;39.70;;
44048;SDS011;29717;47.028;15.470;2022-10-16T05:47:25;97.93;;;42.75;;
44048;SDS011;29717;47.028;15.470;2022-10-16T05:49:52;52.33;;;39.10;;
44048;SDS011;29717;47.028;15.470;2022-10-16T05:52:20;48.25;;;38.58;;
44048;SDS011;29717;47.028;15.470;2022-10-16T05:54:46;49.88;;;40.85;;
44048;SDS011;29717;47.028;15.470;2022-10-16T05:57:13;51.17;;;39.60;;
44048;SDS011;29717;47.028;15.470;2022-10-16T05:59:40;58.70;;;41.00;;
44048;SDS011;29717;47.028;15.470;2022-10-16T06:02:09;67.18;;;41.20;;
44048;SDS011;29717;47.028;15.470;2022-10-16T06:04:38;56.22;;;40.35;;
44048;SDS011;29717;47.028;15.470;2022-10-16T06:07:05;78.38;;;41.97;;
44048;SDS011;29717;47.028;15.470;2022-10-16T06:09:31;219.43;;;44.05;;
44048;SDS011;29717;47.028;15.470;2022-10-16T06:11:58;157.07;;;40.95;;
44048;SDS011;29717;47.028;15.470;2022-10-16T06:14:25;118.05;;;39.35;;
44048;SDS011;29717;47.028;15.470;2022-10-16T06:16:52;133.85;;;41.28;;
44048;SDS011;29717;47.028;15.470;2022-10-16T06:19:21;106.15;;;40.17;;
44048;SDS011;29717;47.028;15.470;2022-10-16T06:21:48;90.75;;;39.00;;
44048;SDS011;29717;47.028;15.470;2022-10-16T06:24:15;139.43;;;38.75;;
44048;SDS011;29717;47.028;15.470;2022-10-16T06:26:42;191.32;;;43.15;;
44048;SDS011;29717;47.028;15.470;2022-10-16T06:29:08;99.90;;;38.55;;
44048;SDS011;29717;47.028;15.470;2022-10-16T06:31:35;79.10;;;40.13;;
44048;SDS011;29717;47.028;15.470;2022-10-16T06:34:02;124.18;;;41.58;;
44048;SDS011;29717;47.028;15.470;2022-10-16T06:36:32;148.00;;;40.65;;
44048;SDS011;29717;47.028;15.470;2022-10-16T06:38:59;105.05;;;37.92;;
44048;SDS011;29717;47.028;15.470;2022-10-16T06:41:26;122.65;;;38.28;;
44048;SDS011;29717;47.028;15.470;2022-10-16T06:43:52;40.95;;;33.00;;
44048;SDS011;29717;47.028;15.470;2022-10-16T06:46:20;100.53;;;31.50;;
44048;SDS011;29717;47.028;15.470;2022-10-16T06:48:47;121.78;;;33.42;;
44048;SDS011;29717;47.028;15.470;2022-10-16T06:51:15;96.13;;;32.97;;
44048;SDS011;29717;47.028;15.470;2022-10-16T06:53:44;69.53;;;33.85;;
44048;SDS011;29717;47.028;15.470;2022-10-16T06:56:12;100.70;;;31.50;;
44048;SDS011;29717;47.028;15.470;2022-10-16T06:58:39;55.15;;;29.63;;
44048;SDS011;29717;47.028;15.470;2022-10-16T07:01:06;44.47;;;31.95;;
44048;SDS011;29717;47.028;15.470;2022-10-16T07:03:35;114.85;;;30.25;;
44048;SDS011;29717;47.028;15.470;2022-10-16T07:06:02;33.47;;;29.88;;
44048;SDS011;29717;47.028;15.470;2022-10-16T07:08:30;57.28;;;28.30;;
44048;SDS011;29717;47.028;15.470;2022-10-16T07:10:59;64.15;;;27.48;;
44048;SDS011;29717;47.028;15.470;2022-10-16T07:13:26;31.50;;;28.30;;
44048;SDS011;29717;47.028;15.470;2022-10-16T07:15:53;34.42;;;31.05;;
44048;SDS011;29717;47.028;15.470;2022-10-16T07:18:20;34.25;;;30.75;;
44048;SDS011;29717;47.028;15.470;2022-10-16T07:20:51;29.42;;;25.85;;
44048;SDS011;29717;47.028;15.470;2022-10-16T07:23:18;27.52;;;24.98;;
44048;SDS011;29717;47.028;15.470;2022-10-16T07:25:44;27.90;;;25.23;;
44048;SDS011;29717;47.028;15.470;2022-10-16T07:28:12;28.20;;;25.48;;
44048;SDS011;29717;47.028;15.470;2022-10-16T07:30:45;32.47;;;25.48;;
44048;SDS011;29717;47.028;15.470;2022-10-16T07:33:12;28.73;;;25.63;;
44048;SDS011;29717;47.028;15.470;2022-10-16T07:35:46;29.63;;;26.45;;
44048;SDS011;29717;47.028;15.470;2022-10-16T07:38:13;28.40;;;25.55;;
44048;SDS011;29717;47.028;15.470;2022-10-16T07:40:40;29.13;;;26.02;;
44048;SDS011;29717;47.028;15.470;2022-10-16T07:43:07;28.60;;;25.77;;
44048;SDS011;29717;47.028;15.470;2022-10-16T07:45:35;29.55;;;26.40;;
44048;SDS011;29717;47.028;15.470;2022-10-16T07:48:02;28.38;;;25.58;;
44048;SDS011;29717;47.028;15.470;2022-10-16T07:50:29;29.90;;;27.08;;
44048;SDS011;29717;47.028;15.470;2022-10-16T07:52:56;28.83;;;26.02;;
44048;SDS011;29717;47.028;15.470;2022-10-16T07:55:22;29.48;;;26.48;;
44048;SDS011;29717;47.028;15.470;2022-10-16T07:57:49;30.30;;;27.30;;
44048;SDS011;29717;47.028;15.470;2022-10-16T08:00:16;30.70;;;26.75;;
44048;SDS011;29717;47.028;15.470;2022-10-16T08:02:44;30.52;;;27.30;;
44048;SDS011;29717;47.028;15.470;2022-10-16T08:05:11;28.70;;;25.90;;
44048;SDS011;29717;47.028;15.470;2022-10-16T08:07:37;30.02;;;27.02;;
44048;SDS011;29717;47.028;15.470;2022-10-16T08:10:05;29.13;;;26.20;;
44048;SDS011;29717;47.028;15.470;2022-10-16T08:12:32;28.92;;;25.92;;
44048;SDS011;29717;47.028;15.470;2022-10-16T08:14:58;29.10;;;26.23;;
44048;SDS011;29717;47.028;15.470;2022-10-16T08:17:25;29.33;;;26.17;;
44048;SDS011;29717;47.028;15.470;2022-10-16T08:19:53;29.75;;;26.75;;
44048;SDS011;29717;47.028;15.470;2022-10-16T08:22:20;29.85;;;26.73;;
44048;SDS011;29717;47.028;15.470;2022-10-16T08:24:47;28.50;;;25.60;;
44048;SDS011;29717;47.028;15.470;2022-10-16T08:27:13;30.23;;;27.23;;
44048;SDS011;29717;47.028;15.470;2022-10-16T08:29:40;30.05;;;27.10;;
44048;SDS011;29717;47.028;15.470;2022-10-16T08:32:07;29.67;;;26.38;;
44048;SDS011;29717;47.028;15.470;2022-10-16T08:34:33;29.38;;;26.08;;
44048;SDS011;29717;47.028;15.470;2022-10-16T08:37:02;28.90;;;26.00;;
44048;SDS011;29717;47.028;15.470;2022-10-16T08:39:28;28.13;;;25.30;;
44048;SDS011;29717;47.028;15.470;2022-10-16T08:44:47;25.70;;;23.35;;
44048;SDS011;29717;47.028;15.470;2022-10-16T08:47:19;26.27;;;23.65;;
44048;SDS011;29717;47.028;15.470;2022-10-16T08:49:53;24.88;;;22.58;;
44048;SDS011;29717;47.028;15.470;2022-10-16T08:52:23;23.95;;;21.45;;
44048;SDS011;29717;47.028;15.470;2022-10-16T08:54:53;22.65;;;20.55;;
44048;SDS011;29717;47.028;15.470;2022-10-16T08:57:21;23.50;;;21.15;;
44048;SDS011;29717;47.028;15.470;2022-10-16T08:59:48;22.42;;;20.20;;
44048;SDS011;29717;47.028;15.470;2022-10-16T09:02:19;23.23;;;20.95;;
44048;SDS011;29717;47.028;15.470;2022-10-16T09:04:51;21.70;;;19.70;;
44048;SDS011;29717;47.028;15.470;2022-10-16T09:07:22;21.35;;;19.35;;
44048;SDS011;29717;47.028;15.470;2022-10-16T09:12:37;21.20;;;18.98;;
44048;SDS011;29717;47.028;15.470;2022-10-16T09:15:13;20.10;;;18.00;;
44048;SDS011;29717;47.028;15.470;2022-10-16T09:17:42;20.88;;;18.70;;
44048;SDS011;29717;47.028;15.470;2022-10-16T09:20:14;20.75;;;18.92;;
44048;SDS011;29717;47.028;15.470;2022-10-16T09:22:43;18.67;;;16.90;;
44048;SDS011;29717;47.028;15.470;2022-10-16T09:25:11;21.15;;;19.10;;
44048;SDS011;29717;47.028;15.470;2022-10-16T09:27:39;19.52;;;17.80;;
44048;SDS011;29717;47.028;15.470;2022-10-16T09:30:10;19.88;;;17.95;;
44048;SDS011;29717;47.028;15.470;2022-10-16T09:32:37;18.40;;;16.63;;
44048;SDS011;29717;47.028;15.470;2022-10-16T09:35:09;18.50;;;16.85;;
44048;SDS011;29717;47.028;15.470;2022-10-16T09:37:37;18.58;;;16.85;;
44048;SDS011;29717;47.028;15.470;2022-10-16T09:40:04;18.45;;;16.77;;
44048;SDS011;29717;47.028;15.470;2022-10-16T09:42:32;18.27;;;16.67;;
44048;SDS011;29717;47.028;15.470;2022-10-16T09:45:03;18.25;;;16.70;;
44048;SDS011;29717;47.028;15.470;2022-10-16T09:47:30;18.75;;;17.05;;
44048;SDS011;29717;47.028;15.470;2022-10-16T09:49:59;18.00;;;16.40;;
44048;SDS011;29717;47.028;15.470;2022-10-16T09:52:27;18.23;;;16.42;;
44048;SDS011;29717;47.028;15.470;2022-10-16T09:54:55;18.42;;;16.67;;
44048;SDS011;29717;47.028;15.470;2022-10-16T09:57:22;16.88;;;15.20;;
44048;SDS011;29717;47.028;15.470;2022-10-16T09:59:51;18.85;;;15.32;;
44048;SDS011;29717;47.028;15.470;2022-10-16T10:02:23;16.85;;;15.05;;
44048;SDS011;29717;47.028;15.470;2022-10-16T10:04:53;16.45;;;14.57;;
44048;SDS011;29717;47.028;15.470;2022-10-16T10:07:23;15.68;;;14.15;;
44048;SDS011;29717;47.028;15.470;2022-10-16T10:09:50;16.02;;;14.63;;
44048;SDS011;29717;47.028;15.470;2022-10-16T10:12:18;16.05;;;14.35;;
44048;SDS011;29717;47.028;15.470;2022-10-16T10:14:46;16.27;;;14.88;;
44048;SDS011;29717;47.028;15.470;2022-10-16T10:17:14;17.23;;;15.63;;
44048;SDS011;29717;47.028;15.470;2022-10-16T10:19:44;17.08;;;15.50;;
44048;SDS011;29717;47.028;15.470;2022-10-16T10:22:19;16.42;;;14.77;;
44048;SDS011;29717;47.028;15.470;2022-10-16T10:24:54;17.17;;;15.57;;
44048;SDS011;29717;47.028;15.470;2022-10-16T10:27:22;16.40;;;14.90;;
44048;SDS011;29717;47.028;15.470;2022-10-16T10:29:53;15.52;;;14.13;;
44048;SDS011;29717;47.028;15.470;2022-10-16T10:32:24;15.65;;;14.30;;
44048;SDS011;29717;47.028;15.470;2022-10-16T10:35:00;17.10;;;15.35;;
44048;SDS011;29717;47.028;15.470;2022-10-16T10:37:33;16.05;;;14.65;;
44048;SDS011;29717;47.028;15.470;2022-10-16T10:40:05;16.75;;;15.38;;
44048;SDS011;29717;47.028;15.470;2022-10-16T10:42:34;14.57;;;13.10;;
44048;SDS011;29717;47.028;15.470;2022-10-16T10:47:48;14.98;;;13.68;;
44048;SDS011;29717;47.028;15.470;2022-10-16T10:50:22;14.43;;;13.13;;
44048;SDS011;29717;47.028;15.470;2022-10-16T10:52:53;13.60;;;12.30;;
44048;SDS011;29717;47.028;15.470;2022-10-16T10:55:25;13.77;;;12.57;;
44048;SDS011;29717;47.028;15.470;2022-10-16T10:58:06;12.98;;;11.85;;
44048;SDS011;29717;47.028;15.470;2022-10-16T11:00:40;13.55;;;12.30;;
44048;SDS011;29717;47.028;15.470;2022-10-16T11:03:11;13.65;;;12.45;;
44048;SDS011;29717;47.028;15.470;2022-10-16T11:05:42;13.55;;;12.25;;
44048;SDS011;29717;47.028;15.470;2022-10-16T11:08:11;14.52;;;12.90;;
44048;SDS011;29717;47.028;15.470;2022-10-16T11:10:43;13.20;;;11.82;;
44048;SDS011;29717;47.028;15.470;2022-10-16T11:13:15;13.38;;;12.27;;
44048;SDS011;29717;47.028;15.470;2022-10-16T11:15:46;13.13;;;12.07;;
44048;SDS011;29717;47.028;15.470;2022-10-16T11:18:15;13.57;;;12.38;;
44048;SDS011;29717;47.028;15.470;2022-10-16T11:20:45;13.15;;;11.90;;
44048;SDS011;29717;47.028;15.470;2022-10-16T11:23:14;12.68;;;11.48;;
44048;SDS011;29717;47.028;15.470;2022-10-16T11:25:42;13.70;;;12.50;;
44048;SDS011;29717;47.028;15.470;2022-10-16T11:28:11;12.13;;;10.98;;
44048;SDS011;29717;47.028;15.470;2022-10-16T11:30:43;12.05;;;11.05;;
44048;SDS011;29717;47.028;15.470;2022-10-16T11:33:18;12.55;;;11.35;;
44048;SDS011;29717;47.028;15.470;2022-10-16T11:35:49;12.43;;;11.23;;
44048;SDS011;29717;47.028;15.470;2022-10-16T11:38:20;11.88;;;10.77;;
44048;SDS011;29717;47.028;15.470;2022-10-16T11:40:53;11.85;;;10.65;;
44048;SDS011;29717;47.028;15.470;2022-10-16T11:43:24;12.15;;;11.05;;
44048;SDS011;29717;47.028;15.470;2022-10-16T11:45:52;11.57;;;10.55;;
44048;SDS011;29717;47.028;15.470;2022-10-16T11:48:23;11.70;;;10.60;;
44048;SDS011;29717;47.028;15.470;2022-10-16T11:50:54;11.65;;;10.60;;
44048;SDS011;29717;47.028;15.470;2022-10-16T11:53:24;11.63;;;10.63;;
44048;SDS011;29717;47.028;15.470;2022-10-16T11:55:57;12.95;;;10.60;;
44048;SDS011;29717;47.028;15.470;2022-10-16T11:58:25;14.40;;;10.32;;
44048;SDS011;29717;47.028;15.470;2022-10-16T12:00:56;11.07;;;10.18;;
44048;SDS011;29717;47.028;15.470;2022-10-16T12:03:26;12.85;;;11.43;;
44048;SDS011;29717;47.028;15.470;2022-10-16T12:08:45;15.88;;;11.63;;
44048;SDS011;29717;47.028;15.470;2022-10-16T12:11:20;11.35;;;10.20;;
44048;SDS011;29717;47.028;15.470;2022-10-16T12:13:49;11.70;;;10.50;;
44048;SDS011;29717;47.028;15.470;2022-10-16T12:16:22;11.95;;;10.45;;
44048;SDS011;29717;47.028;15.470;2022-10-16T12:18:49;12.70;;;11.50;;
44048;SDS011;29717;47.028;15.470;2022-10-16T12:21:30;12.43;;;11.23;;
44048;SDS011;29717;47.028;15.470;2022-10-16T12:24:02;12.10;;;11.00;;
44048;SDS011;29717;47.028;15.470;2022-10-16T12:26:31;11.38;;;10.38;;
44048;SDS011;29717;47.028;15.470;2022-10-16T12:29:09;12.55;;;11.45;;
44048;SDS011;29717;47.028;15.470;2022-10-16T12:31:39;19.10;;;12.02;;
44048;SDS011;29717;47.028;15.470;2022-10-16T12:34:14;12.40;;;11.15;;
44048;SDS011;29717;47.028;15.470;2022-10-16T12:36:46;17.58;;;12.05;;
44048;SDS011;29717;47.028;15.470;2022-10-16T12:39:21;13.35;;;12.05;;
44048;SDS011;29717;47.028;15.470;2022-10-16T12:42:00;12.70;;;11.32;;
44048;SDS011;29717;47.028;15.470;2022-10-16T12:44:31;12.77;;;11.57;;
44048;SDS011;29717;47.028;15.470;2022-10-16T12:46:58;14.68;;;11.65;;
44048;SDS011;29717;47.028;15.470;2022-10-16T12:49:30;12.63;;;11.52;;
44048;SDS011;29717;47.028;15.470;2022-10-16T12:51:57;19.73;;;12.43;;
44048;SDS011;29717;47.028;15.470;2022-10-16T12:54:27;15.10;;;12.27;;
44048;SDS011;29717;47.028;15.470;2022-10-16T12:56:58;17.00;;;12.07;;
44048;SDS011;29717;47.028;15.470;2022-10-16T12:59:32;13.82;;;10.63;;
44048;SDS011;29717;47.028;15.470;2022-10-16T13:02:11;12.20;;;11.10;;
44048;SDS011;29717;47.028;15.470;2022-10-16T13:04:45;12.05;;;10.85;;
44048;SDS011;29717;47.028;15.470;2022-10-16T13:07:19;12.18;;;11.07;;
44048;SDS011;29717;47.028;15.470;2022-10-16T13:09:55;12.32;;;11.23;;
44048;SDS011;29717;47.028;15.470;2022-10-16T13:12:37;14.45;;;11.30;;
44048;SDS011;29717;47.028;15.470;2022-10-16T13:15:16;12.48;;;11.38;;
44048;SDS011;29717;47.028;15.470;2022-10-16T13:17:48;12.43;;;11.23;;
44048;SDS011;29717;47.028;15.470;2022-10-16T13:20:18;12.68;;;11.57;;
44048;SDS011;29717;47.028;15.470;2022-10-16T13:22:48;13.32;;;11.93;;
44048;SDS011;29717;47.028;15.470;2022-10-16T13:25:20;13.63;;;12.32;;
44048;SDS011;29717;47.028;15.470;2022-10-16T13:27:51;12.38;;;11.18;;
44048;SDS011;29717;47.028;15.470;2022-10-16T13:30:21;12.13;;;11.00;;
44048;SDS011;29717;47.028;15.470;2022-10-16T13:32:49;13.45;;;12.20;;
44048;SDS011;29717;47.028;15.470;2022-10-16T13:35:20;14.15;;;12.73;;
44048;SDS011;29717;47.028;15.470;2022-10-16T13:37:47;13.63;;;12.32;;
44048;SDS011;29717;47.028;15.470;2022-10-16T13:40:18;13.63;;;12.35;;
44048;SDS011;29717;47.028;15.470;2022-10-16T13:42:47;12.82;;;11.75;;
44048;SDS011;29717;47.028;15.470;2022-10-16T13:45:18;14.40;;;13.20;;
44048;SDS011;29717;47.028;15.470;2022-10-16T13:47:45;14.57;;;13.18;;
44048;SDS011;29717;47.028;15.470;2022-10-16T13:50:12;13.38;;;12.10;;
44048;SDS011;29717;47.028;15.470;2022-10-16T13:52:40;12.82;;;11.65;;
44048;SDS011;29717;47.028;15.470;2022-10-16T13:55:09;13.60;;;11.95;;
44048;SDS011;29717;47.028;15.470;2022-10-16T13:57:36;15.80;;;12.95;;
44048;SDS011;29717;47.028;15.470;2022-10-16T14:00:05;14.13;;;12.73;;
44048;SDS011;29717;47.028;15.470;2022-10-16T14:02:43;14.60;;;13.30;;
44048;SDS011;29717;47.028;15.470;2022-10-16T14:05:10;13.75;;;12.43;;
44048;SDS011;29717;47.028;15.470;2022-10-16T14:07:38;16.58;;;13.35;;
44048;SDS011;29717;47.028;15.470;2022-10-16T14:10:07;14.25;;;12.80;;
44048;SDS011;29717;47.028;15.470;2022-10-16T14:12:45;15.00;;;13.52;;
44048;SDS011;29717;47.028;15.470;2022-10-16T14:15:17;14.77;;;13.45;;
44048;SDS011;29717;47.028;15.470;2022-10-16T14:17:45;16.52;;;13.35;;
44048;SDS011;29717;47.028;15.470;2022-10-16T14:20:14;15.27;;;13.43;;
44048;SDS011;29717;47.028;15.470;2022-10-16T14:22:41;15.13;;;13.63;;
44048;SDS011;29717;47.028;15.470;2022-10-16T14:25:22;15.43;;;13.98;;
44048;SDS011;29717;47.028;15.470;2022-10-16T14:28:01;15.20;;;13.80;;